createdAt,value
2023-03-15T14:18:02.986Z,38.86
2023-03-15T16:32:58.681Z,36.78
2023-03-15T16:35:36.475Z,37.10
2023-03-15T16:38:06.271Z,36.85
2023-03-15T16:40:35.876Z,37.14
2023-03-15T16:43:06.396Z,37.21
2023-03-15T16:45:33.616Z,37.27
2023-03-15T16:48:01.405Z,37.49
2023-03-15T16:50:30.082Z,37.57
2023-03-15T16:52:59.736Z,37.88
2023-03-15T16:55:30.431Z,38.17
2023-03-15T16:57:57.744Z,38.37
2023-03-15T17:00:26.014Z,38.62
2023-03-15T17:02:54.239Z,38.77
2023-03-15T17:05:24.894Z,39.26
2023-03-15T17:07:54.085Z,39.37
2023-03-15T17:10:31.461Z,39.66
2023-03-15T17:13:01.151Z,39.92
2023-03-15T17:15:29.900Z,40.18
2023-03-15T17:17:58.597Z,40.18
2023-03-15T17:20:27.436Z,40.32
2023-03-15T17:23:02.584Z,40.58
2023-03-15T17:25:31.090Z,40.69
2023-03-15T17:27:58.970Z,40.96
2023-03-15T17:30:29.140Z,40.98
2023-03-15T17:32:57.022Z,41.27
2023-03-15T17:35:54.815Z,41.52
2023-03-15T17:38:22.694Z,41.38
2023-03-15T17:40:53.882Z,41.63
2023-03-15T17:43:21.606Z,41.72
2023-03-15T17:45:49.001Z,41.80
2023-03-15T17:48:16.607Z,42.07
2023-03-15T17:50:46.699Z,42.31
2023-03-15T17:53:20.106Z,42.34
2023-03-15T17:55:48.268Z,42.46
2023-03-15T17:58:23.714Z,42.74
2023-03-15T18:00:53.845Z,42.72
2023-03-15T18:03:23.199Z,42.93
2023-03-15T18:05:53.930Z,43.10
2023-03-15T18:08:21.811Z,43.17
2023-03-15T18:10:50.713Z,43.54
2023-03-15T18:13:21.477Z,43.68
2023-03-15T18:15:49.906Z,43.84
2023-03-15T18:18:17.499Z,43.96
2023-03-15T18:20:47.365Z,43.96
2023-03-15T18:23:16.074Z,44.04
2023-03-15T18:25:43.947Z,44.09
2023-03-15T18:28:12.328Z,44.39
2023-03-15T18:30:40.413Z,44.60
2023-03-15T18:33:07.632Z,44.55
2023-03-15T18:35:36.870Z,44.44
2023-03-15T18:38:05.446Z,44.69
2023-03-15T18:40:35.063Z,44.48
2023-03-15T18:43:05.580Z,44.62
2023-03-15T18:45:34.741Z,44.52
2023-03-15T18:48:02.001Z,44.75
2023-03-15T18:50:29.779Z,44.80
2023-03-15T18:52:57.406Z,44.95
2023-03-15T18:55:24.637Z,45.00
2023-03-15T18:57:53.881Z,44.73
2023-03-15T19:00:27.081Z,44.90
2023-03-15T19:03:04.894Z,44.85
2023-03-15T19:05:35.047Z,45.04
2023-03-15T19:08:02.806Z,44.94
2023-03-15T19:10:30.034Z,45.02
2023-03-15T19:12:57.143Z,45.01
2023-03-15T19:15:24.751Z,44.78
2023-03-15T19:17:54.636Z,44.94
